KMOT

Minot International Airport

Minot, North Dakota, USA
METAR KMOT 181954Z 10007KT 10SM BKN060 OVC075 M18/M24 A3034 RMK AO2 SLP323 T11831239
Observed Flight Rules
Jan-18 @ 19:54 UTC (13 minutes ago) Visual Flight Rules
Wind Visibility Clouds
100° at 7 knots 10 miles
  • Broken at 6,000' AGL
  • Overcast at 7,500' AGL
Temperatures Readings
Current -18°C / -0°F
Dewpoint -24°C / -11°F
Humidity 60%
Altimeter 30.34" Hg
Pressure 1032.3 hPa
Elevation 519
METAR KMOT 181954Z 10007KT 10SM BKN060 OVC075 M18/M24 A3034 RMK AO2 SLP323 T11831239
Observed Flight Rules
Jan-18 @ 19:54 UTC
(13 minutes ago)
VFR
Wind Visibility
100° at 7 knots 10 miles
Clouds
  • Broken at 6,000' AGL
  • Overcast at 7,500' AGL
Temperature Dewpoint
-18°C / -0°F -24°C / -11°F
Humidity Altimeter Pressure
60% 30.34" Hg 1032.3 hPa